Time;durP1;ratioP1;P1;durP2;ratioP2;P2;SDS_P1;SDS_P2;PMS_P1;PMS_P2;Temp;Humidity;BMP_temperature;BMP_pressure;BME280_temperature;BME280_humidity;BME280_pressure;Samples;Min_cycle;Max_cycle;Signal;HPM_P1;HPM_P2
2021/03/11 00:01:55;;;;;;;12.37;6.87;;;;;;;;;;5012282;28;20799;-69
2021/03/11 00:04:21;;;;;;;8.90;6.33;;;;;;;;;;5013598;28;20842;-70
2021/03/11 00:06:47;;;;;;;11.50;6.87;;;;;;;;;;5008676;28;20949;-70
2021/03/11 00:09:13;;;;;;;10.40;6.40;;;;;;;;;;4994027;28;20888;-69
2021/03/11 00:11:39;;;;;;;10.23;5.90;;;;;;;;;;4997364;28;20439;-70
2021/03/11 00:14:05;;;;;;;12.30;6.57;;;;;;;;;;5012053;28;20542;-69
2021/03/11 00:16:31;;;;;;;10.20;6.70;;;;;;;;;;5012150;28;20951;-70
2021/03/11 00:18:57;;;;;;;10.83;6.10;;;;;;;;;;5013250;28;20437;-70
2021/03/11 00:21:23;;;;;;;9.37;6.17;;;;;;;;;;5012118;28;20392;-70
2021/03/11 00:23:49;;;;;;;10.00;5.93;;;;;;;;;;5013384;28;20404;-69
2021/03/11 00:26:15;;;;;;;9.60;6.43;;;;;;;;;;5012416;28;20471;-70
2021/03/11 00:28:41;;;;;;;12.33;7.53;;;;;;;;;;5013259;28;20398;-69
2021/03/11 00:31:07;;;;;;;13.50;7.40;;;;;;;;;;5013378;28;20784;-69
2021/03/11 00:33:33;;;;;;;14.30;7.50;;;;;;;;;;5011944;28;20449;-69
2021/03/11 00:35:59;;;;;;;8.70;5.90;;;;;;;;;;5013026;28;20411;-69
2021/03/11 00:38:25;;;;;;;10.43;7.33;;;;;;;;;;5013893;28;20457;-69
2021/03/11 00:40:51;;;;;;;10.50;6.57;;;;;;;;;;5007746;28;20467;-69
2021/03/11 00:43:17;;;;;;;10.67;5.87;;;;;;;;;;5013190;28;20474;-69
2021/03/11 00:45:47;;;;;;;9.83;6.80;;;;;;;;;;5002431;28;20846;-69
2021/03/11 00:48:13;;;;;;;10.13;5.93;;;;;;;;;;5012390;28;20424;-69
2021/03/11 00:50:39;;;;;;;9.67;5.83;;;;;;;;;;5016559;28;20914;-68
2021/03/11 00:53:05;;;;;;;10.80;6.60;;;;;;;;;;5015702;28;20454;-68
2021/03/11 00:55:31;;;;;;;11.03;5.67;;;;;;;;;;5016395;28;20429;-69
2021/03/11 00:57:57;;;;;;;10.10;5.90;;;;;;;;;;5015368;28;20571;-69
2021/03/11 01:00:24;;;;;;;8.37;5.23;;;;;;;;;;5015209;28;20493;-69
2021/03/11 01:02:50;;;;;;;11.70;6.17;;;;;;;;;;5004016;28;20464;-69
2021/03/11 01:05:24;;;;;;;8.20;5.63;;;;;;;;;;4996765;28;20425;-69
2021/03/11 01:07:50;;;;;;;9.73;6.30;;;;;;;;;;5007813;28;20429;-69
2021/03/11 01:10:16;;;;;;;9.47;6.50;;;;;;;;;;5014923;28;20507;-69
2021/03/11 01:12:42;;;;;;;11.30;5.53;;;;;;;;;;5015415;28;20441;-69
2021/03/11 01:15:08;;;;;;;9.37;5.50;;;;;;;;;;5014905;28;20477;-69
2021/03/11 01:17:35;;;;;;;11.60;6.93;;;;;;;;;;5015034;28;20460;-69
2021/03/11 01:20:01;;;;;;;6.90;4.83;;;;;;;;;;5015998;28;20487;-69
2021/03/11 01:22:27;;;;;;;9.93;6.07;;;;;;;;;;5015001;28;20425;-69
2021/03/11 01:24:53;;;;;;;8.50;5.23;;;;;;;;;;5015869;28;20419;-69
2021/03/11 01:27:19;;;;;;;8.93;5.93;;;;;;;;;;5014825;28;20438;-69
2021/03/11 01:29:45;;;;;;;9.40;6.80;;;;;;;;;;5016014;28;20501;-69
2021/03/11 01:32:11;;;;;;;7.27;5.13;;;;;;;;;;5014653;28;20593;-69
2021/03/11 01:34:37;;;;;;;12.60;6.20;;;;;;;;;;5015630;28;20422;-69
2021/03/11 01:37:03;;;;;;;6.10;4.50;;;;;;;;;;5014775;28;20432;-69
2021/03/11 01:39:29;;;;;;;14.73;6.00;;;;;;;;;;5015575;28;20493;-69
2021/03/11 01:41:55;;;;;;;11.40;5.87;;;;;;;;;;5014503;28;20432;-69
2021/03/11 01:44:21;;;;;;;10.93;5.77;;;;;;;;;;5015481;28;20510;-69
2021/03/11 01:46:47;;;;;;;9.03;5.80;;;;;;;;;;5012451;28;20432;-68
2021/03/11 01:49:13;;;;;;;7.67;5.13;;;;;;;;;;5015044;28;20407;-69
2021/03/11 01:51:39;;;;;;;10.17;5.23;;;;;;;;;;5014561;28;20402;-68
2021/03/11 01:54:06;;;;;;;9.33;5.60;;;;;;;;;;5015328;28;20741;-69
2021/03/11 01:56:32;;;;;;;13.93;5.27;;;;;;;;;;5015426;28;20470;-69
2021/03/11 01:58:58;;;;;;;9.13;6.30;;;;;;;;;;5014262;28;20434;-68
2021/03/11 02:01:24;;;;;;;8.77;4.93;;;;;;;;;;5015515;28;20395;-69
2021/03/11 02:03:50;;;;;;;8.67;5.93;;;;;;;;;;5014449;28;20810;-68
2021/03/11 02:06:16;;;;;;;9.20;5.40;;;;;;;;;;5015180;28;20424;-69
2021/03/11 02:08:42;;;;;;;7.70;4.90;;;;;;;;;;5014159;28;20816;-69
2021/03/11 02:11:12;;;;;;;8.57;5.50;;;;;;;;;;5015465;28;20400;-69
2021/03/11 02:13:38;;;;;;;6.07;4.23;;;;;;;;;;5014101;28;20792;-69
2021/03/11 02:16:04;;;;;;;10.20;5.50;;;;;;;;;;5017547;23;20485;-73
2021/03/11 02:18:36;;;;;;;9.97;4.80;;;;;;;;;;4995355;28;20444;-72
2021/03/11 02:21:07;;;;;;;6.13;4.20;;;;;;;;;;4993599;28;20547;-73
2021/03/11 02:23:59;;;;;;;8.47;4.90;;;;;;;;;;4994591;28;20426;-72
2021/03/11 02:26:32;;;;;;;10.13;4.40;;;;;;;;;;4994359;28;20438;-72
2021/03/11 02:28:58;;;;;;;6.97;4.77;;;;;;;;;;4994738;28;20430;-73
2021/03/11 02:31:25;;;;;;;8.43;4.90;;;;;;;;;;5010563;28;20412;-73
2021/03/11 02:33:52;;;;;;;6.97;4.23;;;;;;;;;;4990929;28;20436;-73
2021/03/11 02:36:18;;;;;;;5.13;3.40;;;;;;;;;;5010341;28;20435;-72
2021/03/11 02:38:45;;;;;;;9.17;4.20;;;;;;;;;;4994226;28;20460;-72
2021/03/11 02:41:12;;;;;;;8.27;3.93;;;;;;;;;;4995073;28;20462;-73
2021/03/11 02:43:38;;;;;;;5.57;3.80;;;;;;;;;;4994529;28;20464;-72
2021/03/11 02:46:04;;;;;;;4.87;3.40;;;;;;;;;;4995267;28;20436;-73
2021/03/11 02:48:31;;;;;;;6.53;3.67;;;;;;;;;;4994761;28;20771;-72
2021/03/11 02:50:58;;;;;;;6.50;4.60;;;;;;;;;;4995411;28;20785;-73
2021/03/11 02:53:25;;;;;;;5.70;4.10;;;;;;;;;;4994651;28;20789;-73
2021/03/11 02:55:51;;;;;;;5.30;3.90;;;;;;;;;;4994908;28;20434;-73
2021/03/11 02:58:18;;;;;;;6.10;3.87;;;;;;;;;;4993192;28;20454;-73
2021/03/11 03:00:44;;;;;;;7.47;4.00;;;;;;;;;;4994263;28;21036;-73
2021/03/11 03:03:12;;;;;;;4.77;3.50;;;;;;;;;;4993188;28;20431;-73
2021/03/11 03:05:38;;;;;;;5.20;3.43;;;;;;;;;;4994454;28;20431;-73
2021/03/11 03:08:05;;;;;;;4.00;2.93;;;;;;;;;;4993678;28;20429;-73
2021/03/11 03:10:32;;;;;;;6.57;3.97;;;;;;;;;;4994968;28;20406;-72
2021/03/11 03:12:59;;;;;;;4.77;3.30;;;;;;;;;;4993514;28;20432;-73
2021/03/11 03:15:26;;;;;;;8.67;4.50;;;;;;;;;;4993953;28;20519;-73
2021/03/11 03:17:52;;;;;;;5.27;3.40;;;;;;;;;;4993197;28;20425;-73
2021/03/11 03:20:19;;;;;;;6.37;3.03;;;;;;;;;;4994379;28;20461;-72
2021/03/11 03:22:46;;;;;;;4.43;2.83;;;;;;;;;;4993412;28;20477;-73
2021/03/11 03:25:13;;;;;;;6.90;3.53;;;;;;;;;;4994069;28;20437;-73
2021/03/11 03:27:40;;;;;;;5.80;3.53;;;;;;;;;;4994245;28;20440;-72
2021/03/11 03:30:10;;;;;;;6.53;2.73;;;;;;;;;;4993309;28;20458;-73
2021/03/11 03:32:36;;;;;;;4.80;3.17;;;;;;;;;;4994222;28;20420;-73
2021/03/11 03:35:04;;;;;;;4.40;3.10;;;;;;;;;;4982621;28;20459;-73
2021/03/11 03:37:30;;;;;;;4.80;2.53;;;;;;;;;;4993203;28;20426;-73
2021/03/11 03:39:56;;;;;;;5.27;3.20;;;;;;;;;;4993029;28;20473;-72
2021/03/11 03:42:24;;;;;;;4.10;2.70;;;;;;;;;;4994256;28;20423;-72
2021/03/11 03:44:50;;;;;;;3.90;2.60;;;;;;;;;;4992906;28;20450;-72
2021/03/11 03:47:16;;;;;;;5.10;2.13;;;;;;;;;;4994136;28;20411;-72
2021/03/11 03:49:43;;;;;;;3.90;1.90;;;;;;;;;;4993492;28;20425;-73
2021/03/11 03:52:09;;;;;;;3.77;2.60;;;;;;;;;;4994118;28;20476;-72
2021/03/11 03:54:40;;;;;;;5.80;2.60;;;;;;;;;;4993016;28;20434;-72
2021/03/11 03:57:19;;;;;;;4.30;2.40;;;;;;;;;;5009401;28;20828;-72
2021/03/11 03:59:47;;;;;;;4.40;2.60;;;;;;;;;;4993283;28;20482;-72
2021/03/11 04:02:13;;;;;;;3.93;2.67;;;;;;;;;;4994063;28;20504;-72
2021/03/11 04:04:43;;;;;;;4.83;2.90;;;;;;;;;;4992738;28;20881;-73
2021/03/11 04:07:11;;;;;;;6.93;3.30;;;;;;;;;;4994260;28;20407;-73
2021/03/11 04:09:39;;;;;;;5.40;2.80;;;;;;;;;;4991798;28;20445;-72
2021/03/11 04:12:05;;;;;;;9.63;3.40;;;;;;;;;;4995291;28;20419;-72
2021/03/11 04:14:31;;;;;;;7.60;2.73;;;;;;;;;;4996771;28;20430;-73
2021/03/11 04:16:58;;;;;;;5.13;2.93;;;;;;;;;;4997777;28;20533;-72
2021/03/11 04:19:24;;;;;;;3.77;2.70;;;;;;;;;;4996861;28;20494;-72
2021/03/11 04:21:51;;;;;;;6.07;3.20;;;;;;;;;;4996269;28;20410;-72
2021/03/11 04:24:17;;;;;;;4.30;3.07;;;;;;;;;;4995649;28;20438;-72
2021/03/11 04:26:44;;;;;;;10.40;2.87;;;;;;;;;;4997523;28;20452;-72
2021/03/11 04:29:10;;;;;;;5.33;2.67;;;;;;;;;;4996738;28;20791;-72
2021/03/11 04:31:37;;;;;;;10.30;3.13;;;;;;;;;;4997554;28;20406;-73
2021/03/11 04:34:04;;;;;;;6.83;3.40;;;;;;;;;;4993343;28;20445;-72
2021/03/11 04:36:31;;;;;;;5.53;2.63;;;;;;;;;;4977859;28;20431;-72
2021/03/11 04:38:57;;;;;;;8.10;2.83;;;;;;;;;;4984151;28;20442;-72
2021/03/11 04:41:24;;;;;;;2.97;2.20;;;;;;;;;;4996675;28;20423;-72
2021/03/11 04:43:50;;;;;;;4.70;2.63;;;;;;;;;;4996135;28;20519;-71
2021/03/11 04:46:18;;;;;;;4.43;2.20;;;;;;;;;;4996458;28;20433;-71
2021/03/11 04:48:45;;;;;;;3.57;1.93;;;;;;;;;;4996343;28;20467;-71
2021/03/11 04:51:12;;;;;;;4.33;2.43;;;;;;;;;;4996183;28;20438;-71
2021/03/11 04:53:39;;;;;;;3.23;2.30;;;;;;;;;;4996558;28;20432;-71
2021/03/11 04:56:09;;;;;;;3.83;2.10;;;;;;;;;;4997579;28;20433;-71
2021/03/11 04:58:35;;;;;;;3.63;2.50;;;;;;;;;;4997450;28;20438;-71
2021/03/11 05:01:05;;;;;;;4.80;2.23;;;;;;;;;;5012169;28;20465;-72
2021/03/11 05:03:31;;;;;;;4.30;2.20;;;;;;;;;;4996344;28;20416;-72
2021/03/11 05:05:57;;;;;;;2.57;1.90;;;;;;;;;;4997402;28;20903;-72
2021/03/11 05:08:24;;;;;;;4.63;2.47;;;;;;;;;;4996074;28;20918;-72
2021/03/11 05:10:50;;;;;;;4.30;1.97;;;;;;;;;;4978091;28;20478;-72
2021/03/11 05:13:16;;;;;;;4.13;1.70;;;;;;;;;;4977216;28;20412;-71
2021/03/11 05:15:42;;;;;;;4.23;2.00;;;;;;;;;;4995885;28;20609;-72
2021/03/11 05:18:09;;;;;;;4.00;1.80;;;;;;;;;;4997238;28;20437;-72
2021/03/11 05:20:35;;;;;;;5.00;2.00;;;;;;;;;;4995508;28;20464;-72
2021/03/11 05:23:01;;;;;;;3.00;1.87;;;;;;;;;;4996754;28;20433;-72
2021/03/11 05:25:27;;;;;;;3.33;2.00;;;;;;;;;;4995731;28;20530;-72
2021/03/11 05:27:53;;;;;;;4.40;2.23;;;;;;;;;;4997181;28;20486;-72
2021/03/11 05:30:19;;;;;;;3.03;1.80;;;;;;;;;;4995372;28;20436;-72
2021/03/11 05:32:45;;;;;;;2.57;1.77;;;;;;;;;;4996576;28;20763;-72
2021/03/11 05:35:11;;;;;;;8.60;2.20;;;;;;;;;;4983256;28;20553;-72
2021/03/11 05:37:38;;;;;;;6.13;2.17;;;;;;;;;;4977750;28;20407;-72
2021/03/11 05:40:09;;;;;;;3.73;2.20;;;;;;;;;;5004886;28;20553;-72
2021/03/11 05:42:36;;;;;;;6.10;2.00;;;;;;;;;;4996198;28;20974;-72
2021/03/11 05:45:04;;;;;;;6.73;2.17;;;;;;;;;;4995166;28;20447;-71
2021/03/11 05:47:31;;;;;;;4.40;2.47;;;;;;;;;;4994250;28;20426;-71
2021/03/11 05:49:57;;;;;;;5.03;2.00;;;;;;;;;;4995088;28;20426;-72
2021/03/11 05:52:24;;;;;;;3.07;1.83;;;;;;;;;;4990888;28;20539;-72
2021/03/11 05:54:50;;;;;;;6.40;2.10;;;;;;;;;;4995055;28;20454;-72
2021/03/11 05:57:16;;;;;;;3.70;1.90;;;;;;;;;;4996108;28;20474;-73
2021/03/11 05:59:43;;;;;;;4.20;2.27;;;;;;;;;;4995042;28;20911;-72
2021/03/11 06:02:09;;;;;;;3.90;2.20;;;;;;;;;;4995922;28;20405;-73
2021/03/11 06:04:36;;;;;;;5.67;2.10;;;;;;;;;;4994838;28;20479;-72
2021/03/11 06:07:02;;;;;;;5.07;2.37;;;;;;;;;;4996002;28;20409;-72
2021/03/11 06:09:29;;;;;;;4.27;2.30;;;;;;;;;;4995571;28;20919;-73
2021/03/11 06:11:56;;;;;;;3.47;2.40;;;;;;;;;;4996761;28;20413;-73
2021/03/11 06:14:23;;;;;;;3.10;1.67;;;;;;;;;;4994274;28;20436;-73
2021/03/11 06:17:01;;;;;;;5.53;2.50;;;;;;;;;;4995656;28;20839;-73
2021/03/11 06:19:28;;;;;;;4.33;2.30;;;;;;;;;;4994968;28;20448;-73
2021/03/11 06:21:54;;;;;;;4.03;1.57;;;;;;;;;;4995653;28;20407;-73
2021/03/11 06:24:23;;;;;;;4.13;1.90;;;;;;;;;;5009804;28;20487;-73
2021/03/11 06:26:49;;;;;;;3.83;1.90;;;;;;;;;;4995811;28;20438;-73
2021/03/11 06:29:17;;;;;;;5.47;2.17;;;;;;;;;;4994942;28;20464;-73
2021/03/11 06:31:43;;;;;;;4.30;2.00;;;;;;;;;;4995308;28;20406;-73
2021/03/11 06:34:22;;;;;;;4.27;2.10;;;;;;;;;;4995242;28;20407;-74
2021/03/11 06:36:49;;;;;;;6.70;1.90;;;;;;;;;;4995086;28;20427;-73
2021/03/11 06:39:25;;;;;;;4.70;2.17;;;;;;;;;;4994830;28;20449;-74
2021/03/11 06:41:51;;;;;;;6.77;2.00;;;;;;;;;;4994983;28;20458;-72
2021/03/11 06:44:17;;;;;;;2.93;1.70;;;;;;;;;;4995051;28;20386;-72
2021/03/11 06:46:59;;;;;;;3.67;2.20;;;;;;;;;;4994519;28;20478;-74
2021/03/11 06:49:25;;;;;;;3.40;2.80;;;;;;;;;;4994330;28;20400;-74
2021/03/11 06:52:14;;;;;;;4.30;2.20;;;;;;;;;;4995575;28;20474;-73
2021/03/11 06:54:53;;;;;;;3.30;2.53;;;;;;;;;;4994741;28;20424;-73
2021/03/11 06:57:29;;;;;;;3.47;2.00;;;;;;;;;;4995759;28;20411;-73
2021/03/11 06:59:55;;;;;;;4.33;2.00;;;;;;;;;;4994739;28;21005;-74
2021/03/11 07:02:22;;;;;;;3.10;1.53;;;;;;;;;;4995704;28;20439;-73
2021/03/11 07:04:48;;;;;;;3.73;2.10;;;;;;;;;;4993971;28;20481;-73
2021/03/11 07:07:18;;;;;;;4.30;1.90;;;;;;;;;;4995911;28;20411;-74
2021/03/11 07:09:44;;;;;;;3.47;1.63;;;;;;;;;;5009637;28;20414;-73
2021/03/11 07:12:10;;;;;;;2.93;2.20;;;;;;;;;;5009402;28;20438;-73
2021/03/11 07:14:36;;;;;;;4.00;1.90;;;;;;;;;;4993968;28;20491;-73
2021/03/11 07:17:21;;;;;;;2.73;1.83;;;;;;;;;;4975737;28;20416;-73
2021/03/11 07:20:06;;;;;;;3.87;2.03;;;;;;;;;;4976803;28;20479;-71
2021/03/11 07:22:32;;;;;;;2.73;1.93;;;;;;;;;;4994489;28;20419;-72
2021/03/11 07:24:58;;;;;;;3.00;1.70;;;;;;;;;;4991179;28;20455;-73
2021/03/11 07:27:24;;;;;;;3.47;2.20;;;;;;;;;;4974960;28;20465;-73
2021/03/11 07:30:04;;;;;;;3.40;2.70;;;;;;;;;;4976570;28;20409;-72
2021/03/11 07:32:30;;;;;;;6.07;2.10;;;;;;;;;;4994536;28;20407;-73
2021/03/11 07:34:56;;;;;;;5.87;2.67;;;;;;;;;;4993470;28;20459;-73
2021/03/11 07:37:23;;;;;;;12.40;3.93;;;;;;;;;;4994177;28;20414;-73
2021/03/11 07:39:50;;;;;;;10.60;3.60;;;;;;;;;;4993624;28;20501;-73
2021/03/11 07:42:17;;;;;;;5.63;2.93;;;;;;;;;;4994481;28;20422;-73
2021/03/11 07:44:44;;;;;;;6.27;2.87;;;;;;;;;;4994029;28;20541;-73
2021/03/11 07:47:10;;;;;;;6.47;3.33;;;;;;;;;;4994709;28;20410;-73
2021/03/11 07:49:37;;;;;;;4.93;2.40;;;;;;;;;;4995927;28;20497;-73
2021/03/11 07:52:03;;;;;;;6.00;2.37;;;;;;;;;;4995048;28;20794;-73
2021/03/11 07:54:32;;;;;;;5.20;3.20;;;;;;;;;;4994783;28;20412;-73
2021/03/11 07:56:58;;;;;;;5.00;2.27;;;;;;;;;;4993325;28;20518;-72
2021/03/11 07:59:24;;;;;;;5.87;3.00;;;;;;;;;;4993513;28;20461;-69
2021/03/11 08:01:59;;;;;;;4.17;2.43;;;;;;;;;;4990436;28;20435;-70
2021/03/11 08:04:26;;;;;;;5.03;2.67;;;;;;;;;;4992538;28;20422;-69
2021/03/11 08:07:12;;;;;;;2.93;2.07;;;;;;;;;;4992257;28;20446;-69
2021/03/11 08:09:39;;;;;;;7.60;2.47;;;;;;;;;;4982664;28;20784;-69
2021/03/11 08:12:23;;;;;;;4.43;2.47;;;;;;;;;;4983086;28;20439;-69
2021/03/11 08:14:49;;;;;;;5.30;2.30;;;;;;;;;;4982051;28;20523;-69
2021/03/11 08:17:35;;;;;;;5.17;3.37;;;;;;;;;;4985415;28;20448;-71
2021/03/11 08:20:02;;;;;;;7.63;2.17;;;;;;;;;;4989351;28;20558;-72
2021/03/11 08:22:47;;;;;;;3.83;2.50;;;;;;;;;;5004604;28;20530;-72
2021/03/11 08:25:40;;;;;;;8.20;3.20;;;;;;;;;;4989963;28;20460;-72
2021/03/11 08:28:09;;;;;;;6.17;2.30;;;;;;;;;;4992688;28;20427;-72
2021/03/11 08:30:41;;;;;;;5.53;2.87;;;;;;;;;;4990997;28;20438;-72
2021/03/11 08:33:12;;;;;;;5.97;1.80;;;;;;;;;;4993741;28;20399;-72
2021/03/11 08:35:45;;;;;;;4.30;2.53;;;;;;;;;;4982012;28;20454;-72
2021/03/11 08:38:20;;;;;;;4.50;2.80;;;;;;;;;;4992423;28;20419;-72
2021/03/11 08:40:52;;;;;;;4.90;1.77;;;;;;;;;;4992178;28;20714;-72
2021/03/11 08:43:41;;;;;;;5.63;1.93;;;;;;;;;;4992880;28;20407;-72
2021/03/11 08:46:12;;;;;;;4.10;2.07;;;;;;;;;;4993025;28;20822;-72
2021/03/11 08:48:51;;;;;;;3.67;1.50;;;;;;;;;;4992361;28;20476;-72
2021/03/11 08:51:23;;;;;;;5.20;1.73;;;;;;;;;;4992448;28;20472;-72
2021/03/11 08:53:52;;;;;;;4.00;2.00;;;;;;;;;;4990259;28;20843;-71
2021/03/11 08:56:18;;;;;;;2.20;1.47;;;;;;;;;;4982359;28;20456;-72
2021/03/11 08:58:51;;;;;;;3.07;1.50;;;;;;;;;;4988017;28;20449;-72
2021/03/11 09:01:29;;;;;;;5.43;1.33;;;;;;;;;;4995047;28;20471;-72
2021/03/11 09:03:56;;;;;;;2.53;1.50;;;;;;;;;;4996242;28;20423;-72
2021/03/11 09:06:42;;;;;;;2.30;1.20;;;;;;;;;;4995763;28;20502;-72
2021/03/11 09:09:08;;;;;;;2.47;1.43;;;;;;;;;;4996150;28;20420;-72
2021/03/11 09:11:34;;;;;;;2.40;1.17;;;;;;;;;;4994771;28;20823;-72
2021/03/11 09:14:00;;;;;;;2.93;1.30;;;;;;;;;;4995638;28;20422;-72
2021/03/11 09:16:27;;;;;;;2.53;1.40;;;;;;;;;;4994524;28;20486;-72
2021/03/11 09:18:54;;;;;;;2.33;1.50;;;;;;;;;;4996016;28;20506;-72
2021/03/11 09:21:20;;;;;;;3.40;1.37;;;;;;;;;;4994770;28;20470;-72
2021/03/11 09:23:46;;;;;;;1.97;1.03;;;;;;;;;;4995869;28;20495;-72
2021/03/11 09:26:35;;;;;;;2.33;1.23;;;;;;;;;;4988257;28;20458;-73
2021/03/11 09:29:05;;;;;;;4.23;1.40;;;;;;;;;;4997516;28;20416;-72
2021/03/11 09:31:31;;;;;;;2.20;1.40;;;;;;;;;;4996057;28;20818;-72
2021/03/11 09:33:59;;;;;;;1.90;1.00;;;;;;;;;;4991090;28;20543;-72
2021/03/11 09:36:25;;;;;;;2.20;1.27;;;;;;;;;;4983633;28;21026;-73
2021/03/11 09:38:51;;;;;;;2.10;1.07;;;;;;;;;;4994931;28;20456;-72
2021/03/11 09:41:27;;;;;;;3.10;1.50;;;;;;;;;;4986931;28;20831;-73
2021/03/11 09:43:53;;;;;;;2.57;1.23;;;;;;;;;;4983655;28;20969;-72
2021/03/11 09:46:23;;;;;;;2.40;1.37;;;;;;;;;;4985645;28;20460;-72
2021/03/11 09:48:53;;;;;;;2.37;1.10;;;;;;;;;;4986007;28;20432;-72
2021/03/11 09:51:26;;;;;;;1.63;1.17;;;;;;;;;;4985509;28;20437;-73
2021/03/11 09:53:55;;;;;;;3.30;1.10;;;;;;;;;;4985137;28;20776;-72
2021/03/11 09:56:22;;;;;;;6.82;1.00;;;;;;;;;;4988132;28;20479;-72
2021/03/11 09:58:57;;;;;;;2.47;1.20;;;;;;;;;;4987101;28;20230;-72
2021/03/11 10:01:25;;;;;;;2.77;1.13;;;;;;;;;;4990651;28;20808;-72
2021/03/11 10:03:52;;;;;;;1.80;1.03;;;;;;;;;;4986667;28;20502;-72
2021/03/11 10:06:19;;;;;;;2.93;1.00;;;;;;;;;;4988503;28;20465;-72
2021/03/11 10:08:45;;;;;;;2.33;1.10;;;;;;;;;;4992169;28;20474;-72
2021/03/11 10:11:19;;;;;;;2.83;1.30;;;;;;;;;;4991870;28;20775;-72
2021/03/11 10:13:49;;;;;;;1.60;1.03;;;;;;;;;;4984902;28;20904;-73
2021/03/11 10:16:17;;;;;;;3.33;1.10;;;;;;;;;;4985122;28;20822;-72
2021/03/11 10:19:00;;;;;;;2.10;1.30;;;;;;;;;;4986156;28;20430;-73
2021/03/11 10:21:26;;;;;;;1.70;1.00;;;;;;;;;;4987606;28;20432;-72
2021/03/11 10:23:52;;;;;;;4.10;1.60;;;;;;;;;;4990018;28;20447;-72
2021/03/11 10:26:20;;;;;;;2.57;1.50;;;;;;;;;;4985602;28;20451;-72
2021/03/11 10:28:48;;;;;;;1.73;0.93;;;;;;;;;;4987014;28;20804;-72
2021/03/11 10:31:14;;;;;;;9.43;1.23;;;;;;;;;;4987260;28;20428;-73
2021/03/11 10:33:41;;;;;;;2.03;0.97;;;;;;;;;;4986443;28;20423;-73
2021/03/11 10:36:15;;;;;;;1.80;1.00;;;;;;;;;;4987071;28;20983;-73
2021/03/11 10:38:42;;;;;;;4.50;1.30;;;;;;;;;;4986742;28;20420;-72
2021/03/11 10:41:18;;;;;;;2.33;0.83;;;;;;;;;;4988314;28;20972;-72
2021/03/11 10:43:45;;;;;;;5.33;1.00;;;;;;;;;;4985505;28;20447;-72
2021/03/11 10:46:17;;;;;;;1.93;1.00;;;;;;;;;;4978555;28;20449;-72
2021/03/11 10:48:50;;;;;;;1.97;1.10;;;;;;;;;;4976797;28;20773;-72
2021/03/11 10:51:18;;;;;;;2.57;1.13;;;;;;;;;;4995337;28;21229;-72
2021/03/11 10:53:44;;;;;;;1.57;0.93;;;;;;;;;;4989114;28;20428;-72
2021/03/11 10:56:10;;;;;;;2.33;1.00;;;;;;;;;;4987280;28;20443;-72
2021/03/11 10:58:36;;;;;;;2.10;1.20;;;;;;;;;;4983829;28;20796;-72
2021/03/11 11:01:13;;;;;;;2.60;1.03;;;;;;;;;;4992449;28;20929;-72
2021/03/11 11:03:39;;;;;;;4.70;1.00;;;;;;;;;;4990839;28;20424;-72
2021/03/11 11:06:06;;;;;;;1.90;1.03;;;;;;;;;;4992348;28;20444;-72
2021/03/11 11:08:33;;;;;;;2.97;1.07;;;;;;;;;;4990300;28;20522;-72
2021/03/11 11:11:01;;;;;;;1.97;0.97;;;;;;;;;;4993667;28;20426;-73
2021/03/11 11:13:28;;;;;;;1.90;1.10;;;;;;;;;;4993474;28;20436;-73
2021/03/11 11:15:54;;;;;;;3.57;0.80;;;;;;;;;;4993919;28;20967;-72
2021/03/11 11:18:20;;;;;;;1.80;0.90;;;;;;;;;;4989137;28;20439;-72
2021/03/11 11:20:46;;;;;;;4.07;1.10;;;;;;;;;;4994962;28;20456;-72
2021/03/11 11:23:12;;;;;;;2.57;1.13;;;;;;;;;;4996255;28;20464;-72
2021/03/11 11:25:38;;;;;;;4.47;1.00;;;;;;;;;;5008720;28;20438;-73
2021/03/11 11:28:04;;;;;;;2.17;1.27;;;;;;;;;;4994706;28;20936;-72
2021/03/11 11:30:31;;;;;;;1.77;0.90;;;;;;;;;;5007554;28;20420;-72
2021/03/11 11:32:57;;;;;;;2.23;1.10;;;;;;;;;;5005121;28;20497;-72
2021/03/11 11:35:24;;;;;;;1.53;0.80;;;;;;;;;;4999600;28;20436;-72
2021/03/11 11:37:50;;;;;;;3.73;1.10;;;;;;;;;;4998682;28;20428;-73
2021/03/11 11:40:17;;;;;;;2.03;1.00;;;;;;;;;;4996653;28;20468;-73
2021/03/11 11:42:43;;;;;;;2.27;1.27;;;;;;;;;;4992029;28;20459;-72
2021/03/11 11:45:10;;;;;;;8.90;1.17;;;;;;;;;;4997373;28;20522;-72
2021/03/11 11:47:36;;;;;;;3.00;0.90;;;;;;;;;;4990784;28;20490;-72
2021/03/11 11:50:03;;;;;;;3.63;1.40;;;;;;;;;;4991263;28;20417;-72
2021/03/11 11:52:29;;;;;;;3.87;1.00;;;;;;;;;;4999233;28;20535;-73
2021/03/11 11:54:55;;;;;;;2.00;1.10;;;;;;;;;;4993554;28;20542;-73
2021/03/11 11:57:21;;;;;;;4.17;1.20;;;;;;;;;;4991107;28;20439;-72
2021/03/11 11:59:48;;;;;;;3.27;1.17;;;;;;;;;;4995555;28;20456;-72
2021/03/11 12:02:14;;;;;;;2.33;0.93;;;;;;;;;;5002442;28;20414;-72
2021/03/11 12:04:40;;;;;;;1.80;0.87;;;;;;;;;;4990083;28;20428;-72
2021/03/11 12:07:07;;;;;;;1.80;0.93;;;;;;;;;;5000105;28;20416;-73
2021/03/11 12:09:33;;;;;;;1.60;0.90;;;;;;;;;;4990403;28;20446;-72
2021/03/11 12:11:59;;;;;;;1.93;1.00;;;;;;;;;;4993126;28;20511;-72
2021/03/11 12:14:25;;;;;;;2.07;1.03;;;;;;;;;;4996027;28;20939;-72
2021/03/11 12:16:51;;;;;;;2.03;1.00;;;;;;;;;;5001462;28;20466;-72
2021/03/11 12:19:17;;;;;;;2.37;0.90;;;;;;;;;;4992305;28;20444;-72
2021/03/11 12:21:45;;;;;;;1.73;0.90;;;;;;;;;;4995639;28;20459;-74
2021/03/11 12:24:11;;;;;;;2.33;1.17;;;;;;;;;;4997485;28;20439;-73
2021/03/11 12:26:37;;;;;;;1.80;1.10;;;;;;;;;;4992661;28;20437;-74
2021/03/11 12:29:03;;;;;;;2.33;1.43;;;;;;;;;;4991577;28;20420;-74
2021/03/11 12:31:29;;;;;;;1.60;0.90;;;;;;;;;;4992321;28;20424;-74
2021/03/11 12:33:56;;;;;;;1.83;1.10;;;;;;;;;;4994036;28;20519;-74
2021/03/11 12:36:22;;;;;;;3.00;1.10;;;;;;;;;;4994604;28;20448;-74
2021/03/11 12:38:51;;;;;;;2.07;0.90;;;;;;;;;;4995750;28;20464;-74
2021/03/11 12:41:17;;;;;;;3.87;1.20;;;;;;;;;;4995903;28;20465;-74
2021/03/11 12:43:44;;;;;;;1.60;0.77;;;;;;;;;;4995664;28;20520;-74
2021/03/11 12:46:10;;;;;;;2.87;1.33;;;;;;;;;;4996262;28;20816;-74
2021/03/11 12:48:36;;;;;;;2.43;1.07;;;;;;;;;;4994206;28;20432;-74
2021/03/11 12:51:02;;;;;;;2.10;1.07;;;;;;;;;;4995776;28;20795;-74
2021/03/11 12:53:28;;;;;;;1.80;0.90;;;;;;;;;;4983278;28;20428;-75
2021/03/11 12:55:54;;;;;;;3.57;0.93;;;;;;;;;;4992228;28;20520;-74
2021/03/11 12:58:21;;;;;;;2.07;1.00;;;;;;;;;;4994253;28;20937;-74
2021/03/11 13:00:49;;;;;;;3.10;1.00;;;;;;;;;;4995934;28;20514;-74
2021/03/11 13:03:15;;;;;;;3.10;1.27;;;;;;;;;;4994091;28;20420;-74
2021/03/11 13:05:41;;;;;;;1.70;0.90;;;;;;;;;;4995384;28;20475;-75
2021/03/11 13:08:07;;;;;;;1.97;1.13;;;;;;;;;;4994107;28;20423;-74
2021/03/11 13:10:34;;;;;;;3.03;1.77;;;;;;;;;;4995842;28;20416;-74
2021/03/11 13:13:00;;;;;;;2.00;1.13;;;;;;;;;;4995307;28;20401;-75
2021/03/11 13:15:26;;;;;;;4.50;1.17;;;;;;;;;;4995106;28;20984;-74
2021/03/11 13:17:52;;;;;;;6.10;1.47;;;;;;;;;;4995629;28;20396;-74
2021/03/11 13:20:22;;;;;;;1.73;1.00;;;;;;;;;;4993977;28;20965;-74
2021/03/11 13:22:48;;;;;;;2.83;0.90;;;;;;;;;;4995089;28;20523;-75
2021/03/11 13:25:15;;;;;;;3.60;1.03;;;;;;;;;;4994514;28;20448;-73
2021/03/11 13:27:42;;;;;;;1.80;1.17;;;;;;;;;;4993299;28;20436;-74
2021/03/11 13:30:08;;;;;;;2.33;1.37;;;;;;;;;;4994461;28;20437;-74
2021/03/11 13:32:34;;;;;;;3.27;1.10;;;;;;;;;;4994694;28;20424;-74
2021/03/11 13:35:01;;;;;;;5.07;1.40;;;;;;;;;;4994048;28;20901;-74
2021/03/11 13:37:27;;;;;;;1.60;0.90;;;;;;;;;;4992878;28;20439;-74
2021/03/11 13:39:53;;;;;;;1.80;1.10;;;;;;;;;;4993715;28;20464;-74
2021/03/11 13:42:20;;;;;;;8.30;1.50;;;;;;;;;;4995370;28;20479;-73
2021/03/11 13:44:47;;;;;;;2.57;1.17;;;;;;;;;;4993312;28;21004;-73
2021/03/11 13:47:13;;;;;;;1.87;0.97;;;;;;;;;;4993584;28;20428;-73
2021/03/11 13:49:39;;;;;;;8.23;1.27;;;;;;;;;;4985837;28;20803;-73
2021/03/11 13:52:06;;;;;;;4.83;1.43;;;;;;;;;;4993198;28;20455;-73
2021/03/11 13:54:32;;;;;;;1.80;1.10;;;;;;;;;;4992717;28;20437;-73
2021/03/11 13:56:58;;;;;;;1.70;0.90;;;;;;;;;;4997004;28;20439;-73
2021/03/11 13:59:24;;;;;;;2.20;1.10;;;;;;;;;;4991003;28;20439;-73
2021/03/11 14:01:50;;;;;;;2.27;1.60;;;;;;;;;;4993766;28;20917;-74
2021/03/11 14:04:16;;;;;;;5.10;1.10;;;;;;;;;;4991603;28;20994;-74
2021/03/11 14:06:42;;;;;;;2.57;1.37;;;;;;;;;;4994513;28;20469;-73
2021/03/11 14:09:08;;;;;;;1.87;1.07;;;;;;;;;;4992813;28;20432;-74
2021/03/11 14:11:34;;;;;;;3.83;1.20;;;;;;;;;;4997478;28;20412;-74
2021/03/11 14:14:00;;;;;;;2.40;1.60;;;;;;;;;;4992803;28;20930;-74
2021/03/11 14:16:26;;;;;;;3.90;1.50;;;;;;;;;;5000818;28;20579;-74
2021/03/11 14:18:52;;;;;;;2.30;1.20;;;;;;;;;;5001573;28;20808;-74
2021/03/11 14:21:18;;;;;;;1.93;1.10;;;;;;;;;;4993510;28;20860;-74
2021/03/11 14:23:45;;;;;;;2.63;1.00;;;;;;;;;;4995081;28;20787;-74
2021/03/11 14:26:11;;;;;;;2.00;1.30;;;;;;;;;;4993940;28;20452;-74
2021/03/11 14:28:37;;;;;;;2.20;1.13;;;;;;;;;;4999113;28;20427;-74
2021/03/11 14:31:03;;;;;;;2.27;1.33;;;;;;;;;;4994650;28;20761;-73
2021/03/11 14:33:29;;;;;;;3.23;1.70;;;;;;;;;;4997666;28;20412;-73
2021/03/11 14:35:55;;;;;;;4.60;1.37;;;;;;;;;;4991167;28;20458;-73
2021/03/11 14:38:22;;;;;;;7.37;1.50;;;;;;;;;;4993211;28;20421;-72
2021/03/11 14:40:48;;;;;;;2.07;1.23;;;;;;;;;;4983292;28;20447;-73
2021/03/11 14:43:14;;;;;;;2.57;1.47;;;;;;;;;;5006830;28;20423;-73
2021/03/11 14:45:40;;;;;;;2.63;1.20;;;;;;;;;;4988430;28;20814;-73